sensor_id;sensor_type;location;lat;lon;timestamp;pressure;altitude;pressure_sealevel;temperature;humidity
6615;BME280;3343;42.896;23.912;2022-07-17T00:01:38;96910.31;;;24.44;67.13
6615;BME280;3343;42.896;23.912;2022-07-17T00:04:05;96907.66;;;24.55;66.79
6615;BME280;3343;42.896;23.912;2022-07-17T00:06:32;96904.97;;;24.75;65.60
6615;BME280;3343;42.896;23.912;2022-07-17T00:08:59;96909.56;;;24.95;64.90
6615;BME280;3343;42.896;23.912;2022-07-17T00:11:28;96911.22;;;25.16;64.15
6615;BME280;3343;42.896;23.912;2022-07-17T00:13:54;96909.56;;;25.05;63.84
6615;BME280;3343;42.896;23.912;2022-07-17T00:16:21;96919.81;;;24.98;64.30
6615;BME280;3343;42.896;23.912;2022-07-17T00:18:48;96919.00;;;24.97;64.33
6615;BME280;3343;42.896;23.912;2022-07-17T00:21:15;96920.31;;;24.85;64.17
6615;BME280;3343;42.896;23.912;2022-07-17T00:23:43;96913.06;;;24.95;63.66
6615;BME280;3343;42.896;23.912;2022-07-17T00:26:09;96913.06;;;24.80;64.66
6615;BME280;3343;42.896;23.912;2022-07-17T00:28:38;96908.69;;;24.33;66.94
6615;BME280;3343;42.896;23.912;2022-07-17T00:31:05;96914.09;;;24.49;65.72
6615;BME280;3343;42.896;23.912;2022-07-17T00:33:31;96913.06;;;24.75;65.04
6615;BME280;3343;42.896;23.912;2022-07-17T00:35:59;96907.41;;;24.66;65.64
6615;BME280;3343;42.896;23.912;2022-07-17T00:38:25;96913.59;;;24.82;65.44
6615;BME280;3343;42.896;23.912;2022-07-17T00:40:53;96899.56;;;23.72;69.24
6615;BME280;3343;42.896;23.912;2022-07-17T00:43:21;96912.88;;;24.09;67.44
6615;BME280;3343;42.896;23.912;2022-07-17T00:45:56;96923.53;;;24.66;66.00
6615;BME280;3343;42.896;23.912;2022-07-17T00:48:23;96925.16;;;24.83;65.42
6615;BME280;3343;42.896;23.912;2022-07-17T00:50:50;96932.16;;;24.63;65.59
6615;BME280;3343;42.896;23.912;2022-07-17T00:53:18;96930.56;;;25.13;63.59
6615;BME280;3343;42.896;23.912;2022-07-17T00:55:46;96935.66;;;24.94;64.14
6615;BME280;3343;42.896;23.912;2022-07-17T00:58:19;96933.75;;;24.54;65.41
6615;BME280;3343;42.896;23.912;2022-07-17T01:00:49;96928.75;;;24.10;67.74
6615;BME280;3343;42.896;23.912;2022-07-17T01:03:19;96933.50;;;24.66;65.30
6615;BME280;3343;42.896;23.912;2022-07-17T01:05:46;96934.31;;;24.82;64.43
6615;BME280;3343;42.896;23.912;2022-07-17T01:08:14;96938.16;;;24.13;67.31
6615;BME280;3343;42.896;23.912;2022-07-17T01:10:40;96946.91;;;23.83;68.98
6615;BME280;3343;42.896;23.912;2022-07-17T01:13:08;96946.16;;;23.93;68.06
6615;BME280;3343;42.896;23.912;2022-07-17T01:15:36;96947.16;;;24.29;66.58
6615;BME280;3343;42.896;23.912;2022-07-17T01:18:05;96947.19;;;24.49;65.44
6615;BME280;3343;42.896;23.912;2022-07-17T01:20:35;96947.75;;;24.56;65.02
6615;BME280;3343;42.896;23.912;2022-07-17T01:23:04;96932.44;;;23.94;67.66
6615;BME280;3343;42.896;23.912;2022-07-17T01:25:31;96938.56;;;24.37;65.28
6615;BME280;3343;42.896;23.912;2022-07-17T01:27:59;96953.53;;;24.23;65.68
6615;BME280;3343;42.896;23.912;2022-07-17T01:30:26;96940.16;;;24.28;66.40
6615;BME280;3343;42.896;23.912;2022-07-17T01:32:55;96938.28;;;22.70;72.19
6615;BME280;3343;42.896;23.912;2022-07-17T01:35:22;96937.63;;;22.84;72.61
6615;BME280;3343;42.896;23.912;2022-07-17T01:37:49;96937.19;;;23.35;70.78
6615;BME280;3343;42.896;23.912;2022-07-17T01:40:17;96939.31;;;23.33;71.16
6615;BME280;3343;42.896;23.912;2022-07-17T01:42:46;96944.72;;;23.70;69.09
6615;BME280;3343;42.896;23.912;2022-07-17T01:45:15;96947.97;;;23.77;68.39
6615;BME280;3343;42.896;23.912;2022-07-17T01:47:42;96943.66;;;23.76;69.11
6615;BME280;3343;42.896;23.912;2022-07-17T01:50:10;96951.16;;;23.37;70.68
6615;BME280;3343;42.896;23.912;2022-07-17T01:52:39;96952.94;;;24.05;67.58
6615;BME280;3343;42.896;23.912;2022-07-17T01:55:08;96957.91;;;24.29;66.10
6615;BME280;3343;42.896;23.912;2022-07-17T01:57:36;96952.25;;;23.73;68.48
6615;BME280;3343;42.896;23.912;2022-07-17T02:00:06;96942.28;;;22.67;73.72
6615;BME280;3343;42.896;23.912;2022-07-17T02:02:33;96955.94;;;23.62;69.76
6615;BME280;3343;42.896;23.912;2022-07-17T02:05:01;96950.16;;;23.85;68.03
6615;BME280;3343;42.896;23.912;2022-07-17T02:07:27;96951.78;;;23.91;65.51
6615;BME280;3343;42.896;23.912;2022-07-17T02:09:54;96951.69;;;23.34;68.80
6615;BME280;3343;42.896;23.912;2022-07-17T02:12:21;96948.44;;;23.64;68.22
6615;BME280;3343;42.896;23.912;2022-07-17T02:14:49;96951.38;;;24.25;65.42
6615;BME280;3343;42.896;23.912;2022-07-17T02:17:16;96956.56;;;24.31;65.02
6615;BME280;3343;42.896;23.912;2022-07-17T02:19:43;96953.22;;;24.09;65.54
6615;BME280;3343;42.896;23.912;2022-07-17T02:22:10;96960.91;;;24.37;64.16
6615;BME280;3343;42.896;23.912;2022-07-17T02:24:37;96963.66;;;24.00;65.90
6615;BME280;3343;42.896;23.912;2022-07-17T02:27:04;96960.84;;;23.38;67.47
6615;BME280;3343;42.896;23.912;2022-07-17T02:29:31;96966.81;;;23.82;66.43
6615;BME280;3343;42.896;23.912;2022-07-17T02:31:59;96964.53;;;23.59;67.00
6615;BME280;3343;42.896;23.912;2022-07-17T02:34:26;96950.91;;;23.38;68.04
6615;BME280;3343;42.896;23.912;2022-07-17T02:36:53;96952.78;;;23.70;66.25
6615;BME280;3343;42.896;23.912;2022-07-17T02:39:19;96953.06;;;23.78;65.80
6615;BME280;3343;42.896;23.912;2022-07-17T02:41:46;96952.06;;;23.10;67.66
6615;BME280;3343;42.896;23.912;2022-07-17T02:44:13;96954.78;;;23.15;67.86
6615;BME280;3343;42.896;23.912;2022-07-17T02:46:40;96952.75;;;23.65;66.02
6615;BME280;3343;42.896;23.912;2022-07-17T02:49:08;96947.22;;;23.87;64.47
6615;BME280;3343;42.896;23.912;2022-07-17T02:51:36;96952.13;;;24.10;63.19
6615;BME280;3343;42.896;23.912;2022-07-17T02:54:02;96961.06;;;24.21;62.48
6615;BME280;3343;42.896;23.912;2022-07-17T02:56:29;96966.53;;;24.31;62.54
6615;BME280;3343;42.896;23.912;2022-07-17T02:58:56;96980.25;;;23.82;63.91
6615;BME280;3343;42.896;23.912;2022-07-17T03:01:23;96987.72;;;22.79;68.57
6615;BME280;3343;42.896;23.912;2022-07-17T03:03:50;96997.22;;;22.86;68.50
6615;BME280;3343;42.896;23.912;2022-07-17T03:06:18;96990.34;;;23.33;67.17
6615;BME280;3343;42.896;23.912;2022-07-17T03:08:45;96996.38;;;22.59;69.64
6615;BME280;3343;42.896;23.912;2022-07-17T03:11:11;96992.09;;;22.58;69.79
6615;BME280;3343;42.896;23.912;2022-07-17T03:13:38;96999.66;;;22.88;68.51
6615;BME280;3343;42.896;23.912;2022-07-17T03:16:05;97001.56;;;22.93;68.13
6615;BME280;3343;42.896;23.912;2022-07-17T03:18:33;96994.97;;;22.78;67.98
6615;BME280;3343;42.896;23.912;2022-07-17T03:20:59;96991.94;;;22.97;66.84
6615;BME280;3343;42.896;23.912;2022-07-17T03:23:28;96995.06;;;23.15;66.84
6615;BME280;3343;42.896;23.912;2022-07-17T03:25:55;97000.19;;;23.54;65.40
6615;BME280;3343;42.896;23.912;2022-07-17T03:28:22;97010.25;;;23.64;64.48
6615;BME280;3343;42.896;23.912;2022-07-17T03:30:49;97002.69;;;23.61;64.29
6615;BME280;3343;42.896;23.912;2022-07-17T03:33:15;97005.47;;;23.76;64.37
6615;BME280;3343;42.896;23.912;2022-07-17T03:35:42;97015.25;;;23.97;63.42
6615;BME280;3343;42.896;23.912;2022-07-17T03:38:09;97027.34;;;24.42;61.45
6615;BME280;3343;42.896;23.912;2022-07-17T03:40:38;97021.56;;;24.96;58.41
6615;BME280;3343;42.896;23.912;2022-07-17T03:43:04;97021.53;;;24.75;58.49
6615;BME280;3343;42.896;23.912;2022-07-17T03:45:31;97010.06;;;25.36;56.70
6615;BME280;3343;42.896;23.912;2022-07-17T03:47:58;97015.41;;;25.82;55.21
6615;BME280;3343;42.896;23.912;2022-07-17T03:50:25;97020.78;;;25.87;53.27
6615;BME280;3343;42.896;23.912;2022-07-17T03:52:52;97023.75;;;25.04;56.88
6615;BME280;3343;42.896;23.912;2022-07-17T03:55:19;97027.84;;;25.17;56.98
6615;BME280;3343;42.896;23.912;2022-07-17T03:57:47;97023.22;;;25.12;57.15
6615;BME280;3343;42.896;23.912;2022-07-17T04:00:14;97029.19;;;25.50;56.91
6615;BME280;3343;42.896;23.912;2022-07-17T04:02:41;97034.19;;;26.32;54.10
6615;BME280;3343;42.896;23.912;2022-07-17T04:05:09;97027.97;;;26.91;51.51
6615;BME280;3343;42.896;23.912;2022-07-17T04:07:36;97031.78;;;26.21;51.09
6615;BME280;3343;42.896;23.912;2022-07-17T04:10:06;97035.56;;;26.20;52.11
6615;BME280;3343;42.896;23.912;2022-07-17T04:12:33;97032.88;;;26.15;51.42
6615;BME280;3343;42.896;23.912;2022-07-17T04:15:02;97029.06;;;26.90;48.59
6615;BME280;3343;42.896;23.912;2022-07-17T04:17:30;97043.03;;;27.42;48.52
6615;BME280;3343;42.896;23.912;2022-07-17T04:19:57;97044.00;;;27.56;46.81
6615;BME280;3343;42.896;23.912;2022-07-17T04:22:24;97034.69;;;27.72;46.81
6615;BME280;3343;42.896;23.912;2022-07-17T04:24:51;97043.28;;;28.08;47.61
6615;BME280;3343;42.896;23.912;2022-07-17T04:27:18;97049.81;;;28.31;46.45
6615;BME280;3343;42.896;23.912;2022-07-17T04:29:45;97049.91;;;28.69;46.39
6615;BME280;3343;42.896;23.912;2022-07-17T04:32:14;97051.13;;;29.19;44.84
6615;BME280;3343;42.896;23.912;2022-07-17T04:34:41;97049.13;;;29.25;44.52
6615;BME280;3343;42.896;23.912;2022-07-17T04:37:07;97051.09;;;28.81;44.50
6615;BME280;3343;42.896;23.912;2022-07-17T04:39:34;97052.31;;;28.46;45.56
6615;BME280;3343;42.896;23.912;2022-07-17T04:42:01;97059.84;;;28.97;45.70
6615;BME280;3343;42.896;23.912;2022-07-17T04:44:28;97068.16;;;28.58;46.62
6615;BME280;3343;42.896;23.912;2022-07-17T04:46:55;97056.03;;;28.32;47.43
6615;BME280;3343;42.896;23.912;2022-07-17T04:49:23;97064.63;;;28.10;47.16
6615;BME280;3343;42.896;23.912;2022-07-17T04:51:50;97060.31;;;28.09;47.46
6615;BME280;3343;42.896;23.912;2022-07-17T04:54:17;97071.63;;;28.88;47.00
6615;BME280;3343;42.896;23.912;2022-07-17T04:56:44;97069.63;;;29.31;44.64
6615;BME280;3343;42.896;23.912;2022-07-17T04:59:11;97064.72;;;29.70;43.63
6615;BME280;3343;42.896;23.912;2022-07-17T05:01:37;97075.22;;;30.51;40.84
6615;BME280;3343;42.896;23.912;2022-07-17T05:04:04;97082.00;;;30.07;40.88
6615;BME280;3343;42.896;23.912;2022-07-17T05:06:32;97079.31;;;29.88;42.67
6615;BME280;3343;42.896;23.912;2022-07-17T05:08:59;97074.38;;;30.09;42.28
6615;BME280;3343;42.896;23.912;2022-07-17T05:11:32;97071.78;;;30.45;41.74
6615;BME280;3343;42.896;23.912;2022-07-17T05:13:59;97077.09;;;30.91;41.35
6615;BME280;3343;42.896;23.912;2022-07-17T05:16:27;97072.59;;;30.73;39.06
6615;BME280;3343;42.896;23.912;2022-07-17T05:18:55;97069.13;;;31.22;40.51
6615;BME280;3343;42.896;23.912;2022-07-17T05:21:21;97080.72;;;31.73;39.45
6615;BME280;3343;42.896;23.912;2022-07-17T05:23:50;97078.38;;;31.21;40.71
6615;BME280;3343;42.896;23.912;2022-07-17T05:26:17;97086.31;;;31.31;40.30
6615;BME280;3343;42.896;23.912;2022-07-17T05:28:43;97083.13;;;31.74;40.68
6615;BME280;3343;42.896;23.912;2022-07-17T05:31:10;97086.56;;;32.11;39.29
6615;BME280;3343;42.896;23.912;2022-07-17T05:33:37;97083.69;;;32.47;39.84
6615;BME280;3343;42.896;23.912;2022-07-17T05:36:05;97086.63;;;31.02;39.51
6615;BME280;3343;42.896;23.912;2022-07-17T05:38:31;97078.63;;;30.42;39.49
6615;BME280;3343;42.896;23.912;2022-07-17T05:41:00;97086.78;;;30.70;38.88
6615;BME280;3343;42.896;23.912;2022-07-17T05:43:27;97087.03;;;31.10;37.37
6615;BME280;3343;42.896;23.912;2022-07-17T05:45:54;97074.31;;;31.32;35.63
6615;BME280;3343;42.896;23.912;2022-07-17T05:48:21;97086.78;;;32.23;34.68
6615;BME280;3343;42.896;23.912;2022-07-17T05:50:48;97092.38;;;32.97;32.77
6615;BME280;3343;42.896;23.912;2022-07-17T05:53:18;97095.44;;;33.13;30.27
6615;BME280;3343;42.896;23.912;2022-07-17T05:55:45;97101.31;;;32.89;29.28
6615;BME280;3343;42.896;23.912;2022-07-17T05:58:13;97105.06;;;33.02;30.14
6615;BME280;3343;42.896;23.912;2022-07-17T06:00:41;97102.69;;;33.43;28.96
6615;BME280;3343;42.896;23.912;2022-07-17T06:03:07;97101.06;;;33.77;29.17
6615;BME280;3343;42.896;23.912;2022-07-17T06:05:35;97093.25;;;33.84;28.50
6615;BME280;3343;42.896;23.912;2022-07-17T06:08:02;97106.91;;;33.84;28.57
6615;BME280;3343;42.896;23.912;2022-07-17T06:10:29;97100.91;;;33.65;28.35
6615;BME280;3343;42.896;23.912;2022-07-17T06:12:56;97102.16;;;34.10;29.07
6615;BME280;3343;42.896;23.912;2022-07-17T06:15:25;97101.53;;;34.60;28.90
6615;BME280;3343;42.896;23.912;2022-07-17T06:17:52;97112.47;;;34.98;28.44
6615;BME280;3343;42.896;23.912;2022-07-17T06:20:19;97107.78;;;34.99;28.21
6615;BME280;3343;42.896;23.912;2022-07-17T06:22:46;97104.59;;;34.97;28.23
6615;BME280;3343;42.896;23.912;2022-07-17T06:25:12;97100.66;;;34.77;27.17
6615;BME280;3343;42.896;23.912;2022-07-17T06:27:40;97099.78;;;34.94;26.72
6615;BME280;3343;42.896;23.912;2022-07-17T06:30:08;97104.13;;;35.16;26.66
6615;BME280;3343;42.896;23.912;2022-07-17T06:32:37;97090.88;;;34.67;26.74
6615;BME280;3343;42.896;23.912;2022-07-17T06:35:05;97098.00;;;34.13;27.61
6615;BME280;3343;42.896;23.912;2022-07-17T06:37:33;97087.06;;;34.60;27.80
6615;BME280;3343;42.896;23.912;2022-07-17T06:40:00;97101.34;;;34.18;27.45
6615;BME280;3343;42.896;23.912;2022-07-17T06:42:27;97096.28;;;34.85;26.66
6615;BME280;3343;42.896;23.912;2022-07-17T06:44:55;97099.00;;;35.14;26.83
6615;BME280;3343;42.896;23.912;2022-07-17T06:47:22;97089.53;;;35.74;28.35
6615;BME280;3343;42.896;23.912;2022-07-17T06:49:50;97110.09;;;36.46;26.67
6615;BME280;3343;42.896;23.912;2022-07-17T06:52:17;97105.44;;;35.60;26.30
6615;BME280;3343;42.896;23.912;2022-07-17T06:54:44;97100.44;;;33.28;28.67
6615;BME280;3343;42.896;23.912;2022-07-17T06:57:11;97106.22;;;33.61;28.60
6615;BME280;3343;42.896;23.912;2022-07-17T06:59:38;97099.34;;;34.45;27.95
6615;BME280;3343;42.896;23.912;2022-07-17T07:02:06;97093.13;;;34.36;27.27
6615;BME280;3343;42.896;23.912;2022-07-17T07:04:33;97094.13;;;34.61;28.53
6615;BME280;3343;42.896;23.912;2022-07-17T07:07:01;97093.66;;;34.59;27.24
6615;BME280;3343;42.896;23.912;2022-07-17T07:09:28;97097.59;;;34.40;27.65
6615;BME280;3343;42.896;23.912;2022-07-17T07:11:55;97097.13;;;34.68;28.14
6615;BME280;3343;42.896;23.912;2022-07-17T07:14:22;97100.19;;;34.66;27.81
6615;BME280;3343;42.896;23.912;2022-07-17T07:16:48;97094.72;;;34.75;28.39
6615;BME280;3343;42.896;23.912;2022-07-17T07:19:21;97097.97;;;34.68;29.15
6615;BME280;3343;42.896;23.912;2022-07-17T07:21:48;97109.66;;;35.07;26.93
6615;BME280;3343;42.896;23.912;2022-07-17T07:24:16;97107.59;;;34.66;27.67
6615;BME280;3343;42.896;23.912;2022-07-17T07:26:43;97094.72;;;34.66;28.74
6615;BME280;3343;42.896;23.912;2022-07-17T07:29:10;97101.94;;;34.41;29.18
6615;BME280;3343;42.896;23.912;2022-07-17T07:31:36;97100.13;;;33.55;28.88
6615;BME280;3343;42.896;23.912;2022-07-17T07:34:03;97095.28;;;33.09;29.52
6615;BME280;3343;42.896;23.912;2022-07-17T07:36:30;97101.75;;;33.31;29.88
6615;BME280;3343;42.896;23.912;2022-07-17T07:38:57;97103.66;;;33.65;29.22
6615;BME280;3343;42.896;23.912;2022-07-17T07:41:25;97105.41;;;33.61;29.64
6615;BME280;3343;42.896;23.912;2022-07-17T07:43:52;97114.78;;;34.41;29.25
6615;BME280;3343;42.896;23.912;2022-07-17T07:46:19;97112.50;;;35.40;28.16
6615;BME280;3343;42.896;23.912;2022-07-17T07:48:46;97110.44;;;36.12;27.73
6615;BME280;3343;42.896;23.912;2022-07-17T07:51:13;97116.41;;;36.26;26.06
6615;BME280;3343;42.896;23.912;2022-07-17T07:53:40;97113.38;;;36.06;26.94
6615;BME280;3343;42.896;23.912;2022-07-17T07:56:06;97105.44;;;35.39;26.76
6615;BME280;3343;42.896;23.912;2022-07-17T07:58:35;97109.00;;;34.80;28.57
6615;BME280;3343;42.896;23.912;2022-07-17T08:01:13;97119.66;;;34.18;27.62
6615;BME280;3343;42.896;23.912;2022-07-17T08:03:40;97118.25;;;34.97;26.89
6615;BME280;3343;42.896;23.912;2022-07-17T08:06:06;97115.03;;;35.87;26.65
6615;BME280;3343;42.896;23.912;2022-07-17T08:08:33;97125.19;;;35.86;25.42
6615;BME280;3343;42.896;23.912;2022-07-17T08:11:00;97116.06;;;35.11;26.26
6615;BME280;3343;42.896;23.912;2022-07-17T08:13:27;97118.66;;;34.40;27.10
6615;BME280;3343;42.896;23.912;2022-07-17T08:15:55;97121.38;;;34.31;26.78
6615;BME280;3343;42.896;23.912;2022-07-17T08:18:22;97121.00;;;34.59;25.81
6615;BME280;3343;42.896;23.912;2022-07-17T08:20:49;97118.50;;;34.28;26.03
6615;BME280;3343;42.896;23.912;2022-07-17T08:23:16;97115.53;;;33.77;26.58
6615;BME280;3343;42.896;23.912;2022-07-17T08:25:43;97110.44;;;33.84;25.32
6615;BME280;3343;42.896;23.912;2022-07-17T08:28:12;97107.91;;;34.26;24.83
6615;BME280;3343;42.896;23.912;2022-07-17T08:30:38;97109.47;;;34.44;24.21
6615;BME280;3343;42.896;23.912;2022-07-17T08:33:08;97114.72;;;34.96;23.73
6615;BME280;3343;42.896;23.912;2022-07-17T08:35:36;97114.72;;;34.96;24.71
6615;BME280;3343;42.896;23.912;2022-07-17T08:38:03;97114.34;;;35.06;24.30
6615;BME280;3343;42.896;23.912;2022-07-17T08:40:32;97111.09;;;34.84;23.95
6615;BME280;3343;42.896;23.912;2022-07-17T08:43:00;97110.50;;;35.49;24.08
6615;BME280;3343;42.896;23.912;2022-07-17T08:45:27;97106.66;;;34.70;25.00
6615;BME280;3343;42.896;23.912;2022-07-17T08:47:55;97115.94;;;35.28;24.10
6615;BME280;3343;42.896;23.912;2022-07-17T08:50:26;97118.56;;;34.57;25.23
6615;BME280;3343;42.896;23.912;2022-07-17T08:52:53;97112.50;;;34.52;24.67
6615;BME280;3343;42.896;23.912;2022-07-17T08:55:20;97106.94;;;34.77;25.16
6615;BME280;3343;42.896;23.912;2022-07-17T08:57:47;97094.22;;;35.32;25.57
6615;BME280;3343;42.896;23.912;2022-07-17T09:00:16;97099.34;;;35.33;25.95
6615;BME280;3343;42.896;23.912;2022-07-17T09:02:55;97106.25;;;34.89;25.41
6615;BME280;3343;42.896;23.912;2022-07-17T09:05:26;97106.72;;;34.91;25.74
6615;BME280;3343;42.896;23.912;2022-07-17T09:07:53;97100.47;;;35.74;25.29
6615;BME280;3343;42.896;23.912;2022-07-17T09:10:30;97112.34;;;35.99;25.34
6615;BME280;3343;42.896;23.912;2022-07-17T09:12:58;97108.84;;;35.57;24.57
6615;BME280;3343;42.896;23.912;2022-07-17T09:15:25;97108.53;;;35.08;26.65
6615;BME280;3343;42.896;23.912;2022-07-17T09:17:54;97111.09;;;35.55;25.80
6615;BME280;3343;42.896;23.912;2022-07-17T09:20:21;97095.78;;;35.95;24.45
6615;BME280;3343;42.896;23.912;2022-07-17T09:22:58;97104.56;;;36.34;24.47
6615;BME280;3343;42.896;23.912;2022-07-17T09:25:32;97086.75;;;37.13;24.76
6615;BME280;3343;42.896;23.912;2022-07-17T09:28:01;97098.56;;;37.54;24.49
6615;BME280;3343;42.896;23.912;2022-07-17T09:30:29;97102.06;;;37.26;22.81
6615;BME280;3343;42.896;23.912;2022-07-17T09:32:56;97097.50;;;37.06;23.63
6615;BME280;3343;42.896;23.912;2022-07-17T09:35:24;97090.13;;;37.47;23.46
6615;BME280;3343;42.896;23.912;2022-07-17T09:37:51;97101.81;;;37.44;23.74
6615;BME280;3343;42.896;23.912;2022-07-17T09:40:21;97104.34;;;37.77;23.58
6615;BME280;3343;42.896;23.912;2022-07-17T09:43:06;97098.97;;;36.30;24.80
6615;BME280;3343;42.896;23.912;2022-07-17T09:45:34;97098.38;;;34.88;25.69
6615;BME280;3343;42.896;23.912;2022-07-17T09:48:03;97088.56;;;33.59;27.52
6615;BME280;3343;42.896;23.912;2022-07-17T09:50:31;97078.19;;;34.33;27.20
6615;BME280;3343;42.896;23.912;2022-07-17T09:53:00;97094.06;;;35.07;26.72
6615;BME280;3343;42.896;23.912;2022-07-17T09:55:30;97099.34;;;36.08;26.39
6615;BME280;3343;42.896;23.912;2022-07-17T09:57:59;97098.84;;;36.39;25.12
6615;BME280;3343;42.896;23.912;2022-07-17T10:00:27;97105.06;;;36.48;25.10
6615;BME280;3343;42.896;23.912;2022-07-17T10:02:54;97102.19;;;36.45;24.18
6615;BME280;3343;42.896;23.912;2022-07-17T10:05:21;97094.34;;;36.22;25.09
6615;BME280;3343;42.896;23.912;2022-07-17T10:07:48;97107.22;;;36.10;25.69
6615;BME280;3343;42.896;23.912;2022-07-17T10:10:24;97097.09;;;36.80;25.11
6615;BME280;3343;42.896;23.912;2022-07-17T10:12:54;97089.31;;;36.82;23.17
6615;BME280;3343;42.896;23.912;2022-07-17T10:15:24;97085.19;;;35.73;23.95
6615;BME280;3343;42.896;23.912;2022-07-17T10:18:03;97086.50;;;35.04;25.98
6615;BME280;3343;42.896;23.912;2022-07-17T10:20:30;97089.59;;;35.44;26.75
6615;BME280;3343;42.896;23.912;2022-07-17T10:22:57;97087.78;;;35.69;25.68
6615;BME280;3343;42.896;23.912;2022-07-17T10:25:25;97089.72;;;35.90;25.93
6615;BME280;3343;42.896;23.912;2022-07-17T10:27:55;97094.75;;;36.00;25.55
6615;BME280;3343;42.896;23.912;2022-07-17T10:30:26;97094.19;;;35.53;25.52
6615;BME280;3343;42.896;23.912;2022-07-17T10:32:56;97089.91;;;35.22;25.97
6615;BME280;3343;42.896;23.912;2022-07-17T10:35:25;97079.97;;;34.21;26.70
6615;BME280;3343;42.896;23.912;2022-07-17T10:37:56;97088.16;;;34.21;27.49
6615;BME280;3343;42.896;23.912;2022-07-17T10:40:25;97082.50;;;35.02;26.27
6615;BME280;3343;42.896;23.912;2022-07-17T10:42:59;97084.06;;;35.32;25.96
6615;BME280;3343;42.896;23.912;2022-07-17T10:45:29;97078.66;;;35.65;25.23
6615;BME280;3343;42.896;23.912;2022-07-17T10:48:01;97073.13;;;35.32;24.84
6615;BME280;3343;42.896;23.912;2022-07-17T10:50:30;97071.44;;;34.60;25.51
6615;BME280;3343;42.896;23.912;2022-07-17T10:53:09;97069.22;;;34.92;26.45
6615;BME280;3343;42.896;23.912;2022-07-17T10:55:38;97067.72;;;35.65;25.76
6615;BME280;3343;42.896;23.912;2022-07-17T10:58:20;97073.56;;;35.76;25.08
6615;BME280;3343;42.896;23.912;2022-07-17T11:01:02;97063.63;;;35.09;26.08
6615;BME280;3343;42.896;23.912;2022-07-17T11:03:31;97054.75;;;34.91;27.54
6615;BME280;3343;42.896;23.912;2022-07-17T11:06:13;97051.69;;;35.55;26.06
6615;BME280;3343;42.896;23.912;2022-07-17T11:08:43;97045.94;;;35.48;26.50
6615;BME280;3343;42.896;23.912;2022-07-17T11:11:10;97057.88;;;35.85;25.44
6615;BME280;3343;42.896;23.912;2022-07-17T11:13:40;97043.66;;;36.16;24.68
6615;BME280;3343;42.896;23.912;2022-07-17T11:16:07;97047.94;;;36.87;25.06
6615;BME280;3343;42.896;23.912;2022-07-17T11:18:35;97043.09;;;36.96;24.12
6615;BME280;3343;42.896;23.912;2022-07-17T11:21:03;97036.81;;;37.48;24.49
6615;BME280;3343;42.896;23.912;2022-07-17T11:23:32;97044.97;;;37.88;24.65
6615;BME280;3343;42.896;23.912;2022-07-17T11:26:01;97046.03;;;37.55;24.47
6615;BME280;3343;42.896;23.912;2022-07-17T11:28:33;97027.09;;;36.98;25.30
6615;BME280;3343;42.896;23.912;2022-07-17T11:31:03;97027.25;;;36.77;24.51
6615;BME280;3343;42.896;23.912;2022-07-17T11:33:30;97038.69;;;36.43;25.09
6615;BME280;3343;42.896;23.912;2022-07-17T11:35:58;97032.97;;;36.84;24.75
6615;BME280;3343;42.896;23.912;2022-07-17T11:38:27;97026.06;;;37.43;24.95
6615;BME280;3343;42.896;23.912;2022-07-17T11:40:55;97018.69;;;37.31;25.30
6615;BME280;3343;42.896;23.912;2022-07-17T11:43:22;97027.13;;;37.38;24.97
6615;BME280;3343;42.896;23.912;2022-07-17T11:45:49;97029.66;;;37.87;25.13
6615;BME280;3343;42.896;23.912;2022-07-17T11:48:17;97021.97;;;37.65;25.02
6615;BME280;3343;42.896;23.912;2022-07-17T11:50:55;97004.53;;;36.52;25.40
6615;BME280;3343;42.896;23.912;2022-07-17T11:53:33;97027.34;;;36.68;25.82
6615;BME280;3343;42.896;23.912;2022-07-17T11:56:01;97022.16;;;37.04;25.00
6615;BME280;3343;42.896;23.912;2022-07-17T11:58:28;97002.69;;;36.81;24.36
6615;BME280;3343;42.896;23.912;2022-07-17T12:01:02;97007.88;;;36.98;24.01
6615;BME280;3343;42.896;23.912;2022-07-17T12:03:31;97027.03;;;37.22;25.47
6615;BME280;3343;42.896;23.912;2022-07-17T12:05:58;97017.53;;;36.80;25.33
6615;BME280;3343;42.896;23.912;2022-07-17T12:08:25;97014.97;;;36.99;25.33
6615;BME280;3343;42.896;23.912;2022-07-17T12:11:03;97009.97;;;37.41;24.27
6615;BME280;3343;42.896;23.912;2022-07-17T12:13:40;97007.94;;;37.82;22.96
6615;BME280;3343;42.896;23.912;2022-07-17T12:16:21;97005.44;;;38.08;23.09
6615;BME280;3343;42.896;23.912;2022-07-17T12:19:06;97004.50;;;37.57;24.22
6615;BME280;3343;42.896;23.912;2022-07-17T12:21:52;97000.34;;;37.63;24.26
6615;BME280;3343;42.896;23.912;2022-07-17T12:24:25;96996.41;;;37.92;24.23
6615;BME280;3343;42.896;23.912;2022-07-17T12:26:53;96977.19;;;37.92;23.43
6615;BME280;3343;42.896;23.912;2022-07-17T12:29:21;97002.63;;;37.89;24.14
6615;BME280;3343;42.896;23.912;2022-07-17T12:31:48;96998.13;;;38.28;24.95
6615;BME280;3343;42.896;23.912;2022-07-17T12:34:16;96996.75;;;38.06;23.68
6615;BME280;3343;42.896;23.912;2022-07-17T12:36:44;96988.09;;;37.05;24.18
6615;BME280;3343;42.896;23.912;2022-07-17T12:39:11;96989.88;;;37.13;24.77
6615;BME280;3343;42.896;23.912;2022-07-17T12:41:38;96986.47;;;36.63;24.95
6615;BME280;3343;42.896;23.912;2022-07-17T12:44:04;96990.19;;;37.36;24.98
6615;BME280;3343;42.896;23.912;2022-07-17T12:46:32;96985.78;;;37.75;24.79
6615;BME280;3343;42.896;23.912;2022-07-17T12:48:58;96993.84;;;37.40;24.42
6615;BME280;3343;42.896;23.912;2022-07-17T12:51:27;96986.34;;;37.68;23.45
6615;BME280;3343;42.896;23.912;2022-07-17T12:53:54;96982.44;;;37.53;22.77
6615;BME280;3343;42.896;23.912;2022-07-17T12:56:20;96984.66;;;36.55;25.09
6615;BME280;3343;42.896;23.912;2022-07-17T12:58:47;96975.47;;;36.15;25.75
6615;BME280;3343;42.896;23.912;2022-07-17T13:01:15;96983.69;;;36.15;25.62
6615;BME280;3343;42.896;23.912;2022-07-17T13:03:42;96969.69;;;36.53;26.33
6615;BME280;3343;42.896;23.912;2022-07-17T13:06:09;96971.06;;;36.99;25.63
6615;BME280;3343;42.896;23.912;2022-07-17T13:08:38;96980.94;;;37.28;24.73
6615;BME280;3343;42.896;23.912;2022-07-17T13:11:05;96972.13;;;37.22;23.47
6615;BME280;3343;42.896;23.912;2022-07-17T13:13:31;96977.16;;;37.33;23.64
6615;BME280;3343;42.896;23.912;2022-07-17T13:15:58;96965.75;;;37.30;24.49